Time;durP1;ratioP1;P1;durP2;ratioP2;P2;SDS_P1;SDS_P2;PMS_P1;PMS_P2;Temp;Humidity;BMP_temperature;BMP_pressure;BME280_temperature;BME280_humidity;BME280_pressure;Samples;Min_cycle;Max_cycle;Signal;HPM_P1;HPM_P2
2022/02/09 00:01:44;;;;;;;1.27;0.32;;;;;;;;;;5005627;28;20030;-59
2022/02/09 00:04:35;;;;;;;0.52;0.28;;;;;;;;;;5006103;28;20041;-59
2022/02/09 00:07:09;;;;;;;3.33;0.30;;;;;;;;;;5003039;28;20531;-59
2022/02/09 00:09:37;;;;;;;1.77;0.40;;;;;;;;;;5003460;28;20080;-59
2022/02/09 00:12:08;;;;;;;0.70;0.40;;;;;;;;;;4988735;28;20543;-59
2022/02/09 00:17:15;;;;;;;0.65;0.38;;;;;;;;;;5006920;28;20077;-58
2022/02/09 00:20:18;;;;;;;0.73;0.40;;;;;;;;;;5004578;28;20088;-59
2022/02/09 00:26:32;;;;;;;0.70;0.40;;;;;;;;;;5006848;28;20061;-58
2022/02/09 00:31:25;;;;;;;1.20;0.55;;;;;;;;;;5005934;28;20049;-58
2022/02/09 00:39:16;;;;;;;1.15;0.47;;;;;;;;;;5008786;28;20109;-57
2022/02/09 01:42:18;;;;;;;2.53;0.77;;;;;;;;;;4992725;28;20030;-59
2022/02/09 01:57:11;;;;;;;2.35;1.20;;;;;;;;;;5002923;28;20060;-59
2022/02/09 01:59:38;;;;;;;3.15;1.30;;;;;;;;;;5007670;28;20022;-59
2022/02/09 02:02:05;;;;;;;3.75;1.30;;;;;;;;;;5012780;28;20449;-59
2022/02/09 02:04:30;;;;;;;3.45;1.35;;;;;;;;;;5011170;28;20079;-58
2022/02/09 02:06:56;;;;;;;4.50;1.27;;;;;;;;;;5010837;28;20030;-59
2022/02/09 02:09:24;;;;;;;2.42;1.00;;;;;;;;;;5003630;28;20033;-58
2022/02/09 02:11:58;;;;;;;1.77;1.08;;;;;;;;;;5009286;28;20026;-58
2022/02/09 02:14:37;;;;;;;5.50;1.58;;;;;;;;;;5014140;28;20033;-60
2022/02/09 02:17:27;;;;;;;13.55;1.55;;;;;;;;;;5006231;28;20552;-58
2022/02/09 02:20:02;;;;;;;5.68;1.33;;;;;;;;;;5005034;28;20049;-59
2022/02/09 02:31:09;;;;;;;4.57;1.23;;;;;;;;;;5008323;28;20121;-58
2022/02/09 02:36:24;;;;;;;2.55;1.10;;;;;;;;;;4994149;28;20068;-58
2022/02/09 03:08:47;;;;;;;7.07;1.58;;;;;;;;;;4957761;28;20046;-58
2022/02/09 03:13:49;;;;;;;4.25;1.00;;;;;;;;;;5006419;28;20037;-60
2022/02/09 03:16:25;;;;;;;4.60;1.15;;;;;;;;;;5005455;28;20124;-58
2022/02/09 03:58:04;;;;;;;17.10;1.02;;;;;;;;;;5012923;28;20115;-58
2022/02/09 04:00:34;;;;;;;3.80;0.50;;;;;;;;;;5006764;28;20595;-58
2022/02/09 04:03:01;;;;;;;16.40;1.17;;;;;;;;;;4992715;28;20028;-57
2022/02/09 04:05:27;;;;;;;8.43;0.70;;;;;;;;;;5010785;28;20044;-57
2022/02/09 04:07:53;;;;;;;12.23;0.90;;;;;;;;;;5009710;28;20192;-57
2022/02/09 04:10:25;;;;;;;10.93;0.95;;;;;;;;;;5006531;28;20555;-57
2022/02/09 04:13:12;;;;;;;24.35;2.05;;;;;;;;;;5012396;28;20054;-58
2022/02/09 04:18:41;;;;;;;20.20;1.13;;;;;;;;;;4994559;28;20033;-57
2022/02/09 04:40:27;;;;;;;14.23;0.80;;;;;;;;;;5009901;28;20121;-58
2022/02/09 04:51:01;;;;;;;10.32;0.95;;;;;;;;;;5011438;28;20167;-58
2022/02/09 05:18:31;;;;;;;12.50;1.13;;;;;;;;;;5009088;28;20118;-58
2022/02/09 05:23:37;;;;;;;10.90;0.82;;;;;;;;;;5007661;28;20069;-59
2022/02/09 05:28:29;;;;;;;9.63;1.73;;;;;;;;;;5004315;28;20280;-58
2022/02/09 05:30:54;;;;;;;19.98;1.48;;;;;;;;;;5010665;28;20384;-58
2022/02/09 05:33:21;;;;;;;20.98;1.35;;;;;;;;;;4985356;28;20041;-58
2022/02/09 05:35:47;;;;;;;13.35;1.00;;;;;;;;;;5007296;28;20158;-58
2022/02/09 05:38:13;;;;;;;14.40;0.82;;;;;;;;;;4993312;28;20567;-58
2022/02/09 05:40:40;;;;;;;15.45;0.80;;;;;;;;;;5009610;28;20131;-56
2022/02/09 05:43:08;;;;;;;14.90;1.45;;;;;;;;;;4995702;28;20050;-59
2022/02/09 05:51:12;;;;;;;7.60;0.88;;;;;;;;;;5006707;28;20550;-59
2022/02/09 05:53:57;;;;;;;6.25;0.50;;;;;;;;;;5010152;28;20415;-59
2022/02/09 06:01:35;;;;;;;11.57;0.90;;;;;;;;;;5004051;28;20030;-58
2022/02/09 06:04:01;;;;;;;19.17;1.08;;;;;;;;;;5003521;28;20048;-59
2022/02/09 06:06:27;;;;;;;15.38;1.05;;;;;;;;;;4992551;28;20022;-59
2022/02/09 06:08:52;;;;;;;22.35;3.30;;;;;;;;;;5007204;28;20030;-59
2022/02/09 06:14:10;;;;;;;20.13;0.73;;;;;;;;;;5014883;28;20096;-58
2022/02/09 06:22:22;;;;;;;11.55;1.98;;;;;;;;;;4964384;28;20150;-59
2022/02/09 06:24:48;;;;;;;13.13;1.00;;;;;;;;;;4949132;28;20073;-58
2022/02/09 06:27:14;;;;;;;12.15;1.08;;;;;;;;;;4989648;28;20041;-59
2022/02/09 06:29:45;;;;;;;17.05;1.27;;;;;;;;;;4986222;28;20030;-59
2022/02/09 06:32:12;;;;;;;22.13;1.20;;;;;;;;;;5007949;28;20239;-59
2022/02/09 06:34:38;;;;;;;17.17;1.10;;;;;;;;;;5003107;28;20326;-58
2022/02/09 06:39:37;;;;;;;12.68;1.40;;;;;;;;;;5004237;28;20037;-59
2022/02/09 06:42:03;;;;;;;12.18;1.08;;;;;;;;;;5005539;28;20025;-58
2022/02/09 06:44:30;;;;;;;14.98;1.08;;;;;;;;;;5008786;28;20404;-59
2022/02/09 06:46:56;;;;;;;5.07;0.65;;;;;;;;;;5007062;28;20282;-57
2022/02/09 06:49:22;;;;;;;23.05;1.45;;;;;;;;;;5003470;28;20088;-57
2022/02/09 06:51:48;;;;;;;13.98;1.10;;;;;;;;;;5006433;28;20400;-57
2022/02/09 06:54:27;;;;;;;22.15;1.27;;;;;;;;;;5005310;28;20042;-57
2022/02/09 06:59:29;;;;;;;15.65;0.90;;;;;;;;;;5008744;28;20030;-57
2022/02/09 07:02:02;;;;;;;9.65;0.95;;;;;;;;;;5006858;28;20040;-57
2022/02/09 07:04:28;;;;;;;20.13;1.48;;;;;;;;;;5003029;28;20022;-58
2022/02/09 07:06:53;;;;;;;17.63;0.98;;;;;;;;;;5003635;28;20105;-57
2022/02/09 07:09:19;;;;;;;24.00;0.90;;;;;;;;;;5004674;28;20065;-57
2022/02/09 07:11:45;;;;;;;19.60;1.58;;;;;;;;;;5004819;28;20360;-57
2022/02/09 07:14:10;;;;;;;10.25;0.80;;;;;;;;;;5004143;28;20407;-57
2022/02/09 07:16:37;;;;;;;12.80;0.85;;;;;;;;;;4984949;28;20088;-57
2022/02/09 07:19:07;;;;;;;17.75;0.77;;;;;;;;;;5003261;28;20093;-57
2022/02/09 07:21:33;;;;;;;12.32;0.80;;;;;;;;;;5003679;28;20515;-57
2022/02/09 07:24:00;;;;;;;16.10;1.15;;;;;;;;;;5005376;28;20033;-57
2022/02/09 07:26:30;;;;;;;13.43;1.65;;;;;;;;;;5008197;28;20094;-57
2022/02/09 07:28:59;;;;;;;17.63;1.30;;;;;;;;;;4987127;28;20034;-57
2022/02/09 07:31:24;;;;;;;6.78;0.60;;;;;;;;;;5003973;28;20124;-57
2022/02/09 07:33:50;;;;;;;14.02;1.58;;;;;;;;;;5005053;28;20552;-58
2022/02/09 07:36:16;;;;;;;9.57;0.52;;;;;;;;;;5000965;28;20030;-57
2022/02/09 07:38:44;;;;;;;10.20;0.55;;;;;;;;;;4989146;28;20373;-57
2022/02/09 07:41:09;;;;;;;15.77;1.88;;;;;;;;;;4986512;28;20049;-57
2022/02/09 07:43:48;;;;;;;15.95;1.13;;;;;;;;;;4997093;28;20509;-58
2022/02/09 07:54:00;;;;;;;16.45;1.85;;;;;;;;;;4998595;28;20113;-59
2022/02/09 07:56:35;;;;;;;17.67;1.55;;;;;;;;;;4983651;28;20512;-58
2022/02/09 07:59:01;;;;;;;19.48;1.67;;;;;;;;;;5000954;28;20064;-59
2022/02/09 08:01:26;;;;;;;17.45;1.38;;;;;;;;;;5005418;28;20050;-58
2022/02/09 08:03:56;;;;;;;6.60;0.73;;;;;;;;;;4998019;28;20061;-57
2022/02/09 08:06:24;;;;;;;9.40;1.15;;;;;;;;;;4996832;28;20060;-60
2022/02/09 08:09:01;;;;;;;14.82;1.10;;;;;;;;;;4999350;28;20042;-58
2022/02/09 08:11:35;;;;;;;15.27;2.38;;;;;;;;;;4982882;28;20258;-57
2022/02/09 08:27:38;;;;;;;19.88;1.88;;;;;;;;;;5000064;28;20030;-57
2022/02/09 08:32:50;;;;;;;9.52;0.73;;;;;;;;;;5003470;28;20032;-57
2022/02/09 08:35:16;;;;;;;17.92;1.63;;;;;;;;;;5002339;28;20049;-58
2022/02/09 08:37:42;;;;;;;22.58;1.23;;;;;;;;;;5003253;28;20026;-57
2022/02/09 08:40:11;;;;;;;13.60;1.45;;;;;;;;;;5002722;28;20077;-58
2022/02/09 08:42:38;;;;;;;24.00;1.38;;;;;;;;;;5003937;28;20018;-58
2022/02/09 08:45:06;;;;;;;20.75;1.20;;;;;;;;;;5004385;28;20044;-58
2022/02/09 08:47:32;;;;;;;14.25;1.20;;;;;;;;;;5001420;28;20029;-57
2022/02/09 08:49:57;;;;;;;26.85;2.42;;;;;;;;;;5007411;28;20405;-57
2022/02/09 08:52:23;;;;;;;18.85;1.70;;;;;;;;;;5008360;28;20111;-57
2022/02/09 08:54:50;;;;;;;14.88;1.30;;;;;;;;;;5012018;28;20080;-58
2022/02/09 08:57:16;;;;;;;16.00;1.80;;;;;;;;;;5012067;28;20061;-58
2022/02/09 08:59:42;;;;;;;13.93;1.05;;;;;;;;;;4990625;28;20506;-57
2022/02/09 09:02:11;;;;;;;4.57;0.77;;;;;;;;;;5002478;28;20137;-58
2022/02/09 09:04:47;;;;;;;18.38;1.60;;;;;;;;;;4987055;28;20057;-57
2022/02/09 09:07:17;;;;;;;32.65;6.13;;;;;;;;;;5007957;28;20034;-58
2022/02/09 09:10:09;;;;;;;22.60;2.05;;;;;;;;;;5005351;28;20025;-57
2022/02/09 10:04:39;;;;;;;19.90;1.67;;;;;;;;;;5001134;28;20033;-57
2022/02/09 10:31:18;;;;;;;14.30;1.50;;;;;;;;;;4994430;28;20040;-58
2022/02/09 10:34:10;;;;;;;13.63;1.60;;;;;;;;;;5001470;28;20112;-57
2022/02/09 10:36:49;;;;;;;15.45;1.13;;;;;;;;;;4996410;28;20030;-57
2022/02/09 10:59:37;;;;;;;10.40;1.45;;;;;;;;;;6157419;22;2124300;-81
2022/02/09 11:02:03;;;;;;;16.23;1.77;;;;;;;;;;6220744;23;20103;-80
2022/02/09 11:04:32;;;;;;;20.45;1.92;;;;;;;;;;6161573;23;20005;-81
2022/02/09 11:06:59;;;;;;;18.58;1.95;;;;;;;;;;6130617;23;20013;-81
2022/02/09 11:09:25;;;;;;;14.55;1.65;;;;;;;;;;6154857;23;20532;-82
2022/02/09 11:11:52;;;;;;;14.07;0.95;;;;;;;;;;6155645;23;20031;-86
2022/02/09 11:14:22;;;;;;;11.30;1.20;;;;;;;;;;6154725;23;20009;-82
2022/02/09 11:16:55;;;;;;;11.13;2.47;;;;;;;;;;6156325;23;20409;-81
2022/02/09 11:19:31;;;;;;;10.27;0.90;;;;;;;;;;6154285;23;20005;-81
2022/02/09 11:22:11;;;;;;;7.88;1.10;;;;;;;;;;6155257;23;20168;-86
2022/02/09 11:24:44;;;;;;;7.13;1.15;;;;;;;;;;6155224;23;20012;-84
2022/02/09 11:27:22;;;;;;;16.20;2.05;;;;;;;;;;6155294;23;20005;-81
2022/02/09 11:30:11;;;;;;;16.30;1.67;;;;;;;;;;6154910;23;20020;-81
2022/02/09 11:32:45;;;;;;;20.90;1.35;;;;;;;;;;6156410;23;20039;-80
2022/02/09 11:35:34;;;;;;;15.32;2.05;;;;;;;;;;6132803;23;20014;-81
2022/02/09 11:40:46;;;;;;;7.55;1.00;;;;;;;;;;6159573;23;20013;-82
2022/02/09 11:46:55;;;;;;;10.10;1.38;;;;;;;;;;6154781;23;20072;-82
2022/02/09 11:58:41;;;;;;;9.90;1.23;;;;;;;;;;6193869;23;20015;-81
2022/02/09 12:09:46;;;;;;;11.90;1.50;;;;;;;;;;6178691;23;20093;-80
2022/02/09 12:12:17;;;;;;;8.38;1.10;;;;;;;;;;6161922;23;20100;-81
2022/02/09 12:20:06;;;;;;;;;;;;;;;;;;6176753;23;20021;-82
2022/02/09 12:22:44;;;;;;;9.48;2.15;;;;;;;;;;6178333;23;19908;-82
2022/02/09 12:25:10;;;;;;;6.15;1.05;;;;;;;;;;6174269;23;20008;-82
2022/02/09 12:27:36;;;;;;;11.85;1.10;;;;;;;;;;6175389;23;20529;-82
2022/02/09 12:30:10;;;;;;;14.93;1.17;;;;;;;;;;6149611;23;20009;-76
2022/02/09 12:32:36;;;;;;;13.27;0.95;;;;;;;;;;6175976;23;20039;-79
2022/02/09 12:35:08;;;;;;;11.35;1.65;;;;;;;;;;6175069;23;20592;-84
2022/02/09 12:37:42;;;;;;;4.30;1.05;;;;;;;;;;6176786;23;20012;-83
2022/02/09 12:40:09;;;;;;;19.75;1.50;;;;;;;;;;6175052;23;20013;-83
2022/02/09 12:42:37;;;;;;;15.25;1.63;;;;;;;;;;6174789;23;20513;-82
2022/02/09 12:45:20;;;;;;;14.85;1.38;;;;;;;;;;6175526;23;20017;-87
2022/02/09 12:47:49;;;;;;;11.60;1.45;;;;;;;;;;6173140;23;20008;-83
2022/02/09 12:50:18;;;;;;;13.27;1.30;;;;;;;;;;6174496;23;20123;-83
2022/02/09 12:52:45;;;;;;;19.60;1.45;;;;;;;;;;6176555;23;20009;-83
2022/02/09 12:55:12;;;;;;;9.38;1.65;;;;;;;;;;6176762;23;20009;-84
2022/02/09 12:58:05;;;;;;;21.13;2.08;;;;;;;;;;6175664;23;20580;-83
2022/02/09 13:00:50;;;;;;;11.55;1.08;;;;;;;;;;6174284;23;20043;-82
2022/02/09 13:03:18;;;;;;;16.85;1.60;;;;;;;;;;6180783;23;20084;-87
2022/02/09 13:05:51;;;;;;;8.85;1.48;;;;;;;;;;6191140;23;20028;-83
2022/02/09 13:08:25;;;;;;;9.82;1.45;;;;;;;;;;6186128;23;20080;-85
2022/02/09 13:11:03;;;;;;;12.98;1.45;;;;;;;;;;6175119;23;20063;-85
2022/02/09 13:13:31;;;;;;;12.60;1.27;;;;;;;;;;6177453;23;20090;-82
2022/02/09 13:16:13;;;;;;;18.92;1.45;;;;;;;;;;6133216;23;20492;-83
2022/02/09 13:24:30;;;;;;;18.17;1.98;;;;;;;;;;6178632;23;20009;-83
2022/02/09 14:17:35;;;;;;;10.10;1.25;;;;;;;;;;6180611;23;20038;-85
2022/02/09 14:58:02;;;;;;;5.65;0.85;;;;;;;;;;6086698;23;20464;-60
2022/02/09 15:00:28;;;;;;;4.63;0.80;;;;;;;;;;6116848;23;20349;-60
2022/02/09 15:08:34;;;;;;;9.15;1.15;;;;;;;;;;6114570;23;20488;-59
2022/02/09 15:11:12;;;;;;;6.18;1.00;;;;;;;;;;6117114;23;20010;-61
2022/02/09 15:23:22;;;;;;;11.80;1.02;;;;;;;;;;6116322;23;20105;-61
2022/02/09 15:25:48;;;;;;;2.03;0.60;;;;;;;;;;6112726;23;20413;-60
2022/02/09 15:28:13;;;;;;;5.18;0.88;;;;;;;;;;6116586;23;20044;-60
2022/02/09 15:30:49;;;;;;;6.68;0.65;;;;;;;;;;6116570;23;20010;-60
2022/02/09 15:33:21;;;;;;;4.03;0.55;;;;;;;;;;6116925;23;20014;-60
2022/02/09 15:35:50;;;;;;;6.10;0.30;;;;;;;;;;6119345;23;20033;-59
2022/02/09 15:38:23;;;;;;;7.32;0.75;;;;;;;;;;6118437;23;20014;-60
2022/02/09 15:41:05;;;;;;;8.48;1.00;;;;;;;;;;6119401;23;20020;-58
2022/02/09 16:21:52;;;;;;;8.25;1.35;;;;;;;;;;6117812;23;20133;-60
2022/02/09 16:37:52;;;;;;;6.15;1.40;;;;;;;;;;6116338;23;20068;-60
2022/02/09 16:48:31;;;;;;;16.08;2.88;;;;;;;;;;6117121;23;20397;-59
2022/02/09 16:51:00;;;;;;;12.77;2.13;;;;;;;;;;6117725;23;20013;-60
2022/02/09 16:53:42;;;;;;;20.88;2.60;;;;;;;;;;6116583;23;20480;-60
2022/02/09 17:19:51;;;;;;;23.42;3.63;;;;;;;;;;6115331;23;20117;-60
2022/02/09 17:22:17;;;;;;;13.55;3.83;;;;;;;;;;6116857;23;20012;-60
2022/02/09 17:24:42;;;;;;;9.82;3.67;;;;;;;;;;6116373;23;20009;-60
2022/02/09 17:27:16;;;;;;;18.20;3.40;;;;;;;;;;6116899;23;20401;-60
2022/02/09 17:32:16;;;;;;;16.85;2.88;;;;;;;;;;6119904;23;20044;-60
2022/02/09 17:34:59;;;;;;;8.55;3.28;;;;;;;;;;6116621;23;20021;-59
2022/02/09 17:54:08;;;;;;;18.30;4.60;;;;;;;;;;6114424;23;20040;-59
2022/02/09 17:56:46;;;;;;;17.27;3.15;;;;;;;;;;6103959;23;20016;-60
2022/02/09 17:59:19;;;;;;;13.50;2.05;;;;;;;;;;6114905;23;20029;-59
2022/02/09 18:01:44;;;;;;;7.82;1.80;;;;;;;;;;6115309;23;20378;-59
2022/02/09 18:04:10;;;;;;;9.73;2.03;;;;;;;;;;6115547;23;20041;-61
2022/02/09 18:06:41;;;;;;;9.05;2.10;;;;;;;;;;6115242;23;20016;-60
2022/02/09 18:09:12;;;;;;;6.25;1.85;;;;;;;;;;6116389;23;20488;-60
2022/02/09 18:14:24;;;;;;;12.20;2.28;;;;;;;;;;6117924;23;20018;-60
2022/02/09 18:30:36;;;;;;;14.40;2.25;;;;;;;;;;6116458;23;20021;-60
2022/02/09 18:38:39;;;;;;;11.50;1.77;;;;;;;;;;6115742;23;20400;-59
2022/02/09 19:04:50;;;;;;;3.65;1.13;;;;;;;;;;6113633;23;20021;-60
2022/02/09 19:07:37;;;;;;;15.63;2.90;;;;;;;;;;6115936;23;20025;-60
2022/02/09 19:18:28;;;;;;;7.82;2.63;;;;;;;;;;6118884;23;20445;-60
2022/02/09 19:26:19;;;;;;;16.65;3.20;;;;;;;;;;6118481;23;20111;-59
2022/02/09 19:47:56;;;;;;;13.98;2.80;;;;;;;;;;6096569;23;20017;-58
2022/02/09 19:52:58;;;;;;;8.50;1.95;;;;;;;;;;6117741;23;20450;-58
2022/02/09 19:57:55;;;;;;;9.05;2.20;;;;;;;;;;6118742;23;20017;-57
2022/02/09 20:00:22;;;;;;;12.95;2.30;;;;;;;;;;6114800;23;20584;-57
2022/02/09 20:02:48;;;;;;;13.73;2.63;;;;;;;;;;6117726;23;20049;-58
2022/02/09 20:05:19;;;;;;;9.27;2.60;;;;;;;;;;6116663;23;20006;-58
2022/02/09 20:07:45;;;;;;;5.85;1.95;;;;;;;;;;6117757;23;20425;-58
2022/02/09 20:10:12;;;;;;;6.13;1.23;;;;;;;;;;6117363;23;20010;-58
2022/02/09 20:12:41;;;;;;;12.65;2.60;;;;;;;;;;6116242;23;20013;-58
2022/02/09 20:15:11;;;;;;;16.38;2.70;;;;;;;;;;6117397;23;20010;-59
2022/02/09 20:17:41;;;;;;;9.63;2.35;;;;;;;;;;6118567;23;20480;-59
2022/02/09 20:20:11;;;;;;;11.23;3.33;;;;;;;;;;6114435;23;20047;-59
2022/02/09 20:22:37;;;;;;;9.20;2.90;;;;;;;;;;6115608;23;20002;-59
2022/02/09 20:25:04;;;;;;;13.65;2.40;;;;;;;;;;6117048;23;20021;-59
2022/02/09 20:27:33;;;;;;;11.23;2.85;;;;;;;;;;6117352;23;20010;-58
2022/02/09 20:29:59;;;;;;;9.07;2.72;;;;;;;;;;6117118;23;20469;-59
2022/02/09 20:32:32;;;;;;;13.90;2.83;;;;;;;;;;6118161;23;20010;-59
2022/02/09 20:35:01;;;;;;;13.90;2.30;;;;;;;;;;6115302;23;20382;-58
2022/02/09 20:37:29;;;;;;;10.05;1.88;;;;;;;;;;6117311;23;20046;-58
2022/02/09 20:42:21;;;;;;;7.05;1.33;;;;;;;;;;6117936;23;20029;-59
2022/02/09 20:44:55;;;;;;;10.63;2.22;;;;;;;;;;6116204;23;20025;-59
2022/02/09 20:47:20;;;;;;;14.63;2.95;;;;;;;;;;6116940;23;20449;-59
2022/02/09 20:49:46;;;;;;;20.08;3.75;;;;;;;;;;6118283;23;20060;-59
2022/02/09 20:52:14;;;;;;;15.90;3.97;;;;;;;;;;6117090;23;20013;-59
2022/02/09 20:54:39;;;;;;;18.45;3.75;;;;;;;;;;6118431;23;20005;-59
2022/02/09 20:57:05;;;;;;;14.10;3.30;;;;;;;;;;6115942;23;20053;-58
2022/02/09 20:59:36;;;;;;;12.27;3.20;;;;;;;;;;6115653;23;20029;-60
2022/02/09 21:02:18;;;;;;;10.43;2.95;;;;;;;;;;6117959;23;20006;-60
2022/02/09 21:04:45;;;;;;;9.75;2.05;;;;;;;;;;6118803;23;20388;-61
2022/02/09 21:07:28;;;;;;;6.10;2.30;;;;;;;;;;6117143;23;20018;-60
2022/02/09 21:10:04;;;;;;;16.17;3.50;;;;;;;;;;6117441;23;20365;-60
2022/02/09 21:12:40;;;;;;;15.38;2.63;;;;;;;;;;6117089;23;20013;-58
2022/02/09 21:42:01;;;;;;;10.75;2.28;;;;;;;;;;6116131;23;20045;-59
2022/02/09 21:52:54;;;;;;;9.50;1.95;;;;;;;;;;5970648;24;20518;-59
2022/02/09 22:01:29;;;;;;;4.68;1.35;;;;;;;;;;6115389;23;20125;-58
2022/02/09 22:22:29;;;;;;;17.17;1.80;;;;;;;;;;6116259;23;20330;-59
2022/02/09 22:27:39;;;;;;;9.57;2.38;;;;;;;;;;6113223;23;20098;-59
2022/02/09 22:49:18;;;;;;;11.02;1.63;;;;;;;;;;6116578;23;20033;-60
2022/02/09 22:54:37;;;;;;;9.88;1.38;;;;;;;;;;6114689;23;20020;-59
2022/02/09 22:57:03;;;;;;;5.95;0.88;;;;;;;;;;6115288;23;20021;-60
2022/02/09 22:59:39;;;;;;;8.02;1.60;;;;;;;;;;6115939;23;20346;-59
2022/02/09 23:02:14;;;;;;;10.35;1.65;;;;;;;;;;6116997;23;20009;-59
2022/02/09 23:04:52;;;;;;;8.93;1.30;;;;;;;;;;6116285;23;20021;-60
2022/02/09 23:07:34;;;;;;;6.03;1.38;;;;;;;;;;6117024;23;20014;-60
2022/02/09 23:10:19;;;;;;;9.68;1.67;;;;;;;;;;6116374;23;20438;-59
2022/02/09 23:12:53;;;;;;;10.43;0.90;;;;;;;;;;6117591;23;20010;-60
2022/02/09 23:15:39;;;;;;;11.20;1.48;;;;;;;;;;6117593;23;20249;-60
